Time;durP1;ratioP1;P1;durP2;ratioP2;P2;SDS_P1;SDS_P2;PMS_P1;PMS_P2;Temp;Humidity;BMP_temperature;BMP_pressure;BME280_temperature;BME280_humidity;BME280_pressure;Samples;Min_cycle;Max_cycle;Signal;HPM_P1;HPM_P2
2023/10/26 00:01:45;;;;;;;;;;;20.10;69.10;;;;;;5041029;28;1369;-69
2023/10/26 00:04:11;;;;;;;;;;;20.10;69.10;;;;;;5040557;28;1441;-70
2023/10/26 00:06:36;;;;;;;;;;;20.10;69.10;;;;;;5039075;28;1446;-71
2023/10/26 00:09:03;;;;;;;;;;;20.10;69.10;;;;;;5043448;28;1672;-69
2023/10/26 00:11:30;;;;;;;;;;;20.10;69.10;;;;;;5044635;28;1390;-69
2023/10/26 00:13:55;;;;;;;;;;;20.10;69.10;;;;;;5043055;28;1320;-69
2023/10/26 00:16:21;;;;;;;;;;;20.00;69.10;;;;;;5041750;28;1419;-69
2023/10/26 00:18:46;;;;;;;;;;;20.00;69.10;;;;;;5041748;28;1955;-69
2023/10/26 00:21:12;;;;;;;;;;;20.00;69.10;;;;;;5044195;28;1473;-69
2023/10/26 00:23:37;;;;;;;;;;;20.00;69.90;;;;;;5042245;28;1502;-69
2023/10/26 00:26:03;;;;;;;;;;;20.00;69.10;;;;;;5039473;28;1639;-69
2023/10/26 00:28:28;;;;;;;;;;;20.00;69.10;;;;;;5046746;28;1423;-69
2023/10/26 00:30:54;;;;;;;;;;;20.00;69.20;;;;;;5044357;28;1418;-69
2023/10/26 00:33:19;;;;;;;;;;;20.00;69.20;;;;;;5041278;28;1559;-69
2023/10/26 00:35:45;;;;;;;;;;;20.00;69.20;;;;;;5046656;28;1176;-69
2023/10/26 00:38:10;;;;;;;;;;;20.00;69.20;;;;;;5042381;28;1918;-70
2023/10/26 00:40:36;;;;;;;;;;;20.00;69.20;;;;;;5041934;28;1023;-70
2023/10/26 00:43:01;;;;;;;;;;;20.00;69.20;;;;;;5043892;28;1428;-71
2023/10/26 00:45:27;;;;;;;;;;;20.00;69.20;;;;;;5010735;28;1470;-71
2023/10/26 00:47:53;;;;;;;;;;;20.00;69.20;;;;;;5027264;28;1362;-70
2023/10/26 00:50:18;;;;;;;;;;;20.00;69.30;;;;;;5025692;28;1053;-70
2023/10/26 00:52:44;;;;;;;;;;;20.00;69.30;;;;;;5042315;28;1280;-70
2023/10/26 00:55:09;;;;;;;;;;;20.00;69.30;;;;;;5040376;28;1357;-70
2023/10/26 00:57:35;;;;;;;;;;;20.00;69.30;;;;;;5026200;28;1910;-70
2023/10/26 01:00:00;;;;;;;;;;;20.00;69.30;;;;;;5021837;28;1447;-70
2023/10/26 01:02:26;;;;;;;;;;;20.00;69.40;;;;;;5026242;28;1421;-70
2023/10/26 01:04:51;;;;;;;;;;;20.00;69.40;;;;;;5026979;28;1260;-71
2023/10/26 01:07:17;;;;;;;;;;;20.00;69.40;;;;;;5044997;28;1143;-70
2023/10/26 01:09:42;;;;;;;;;;;20.00;69.40;;;;;;5039859;28;1518;-68
2023/10/26 01:12:08;;;;;;;;;;;20.00;69.40;;;;;;5041456;28;1428;-70
2023/10/26 01:14:33;;;;;;;;;;;20.00;69.40;;;;;;5023435;28;1735;-70
2023/10/26 01:16:59;;;;;;;;;;;20.00;69.40;;;;;;5018941;28;1535;-70
2023/10/26 01:19:37;;;;;;;;;;;20.00;69.40;;;;;;5040327;28;1953;-70
2023/10/26 01:22:03;;;;;;;;;;;20.00;69.50;;;;;;5041869;28;1420;-70
2023/10/26 01:24:28;;;;;;;;;;;20.00;69.50;;;;;;5042809;28;1458;-71
2023/10/26 01:26:54;;;;;;;;;;;20.00;69.50;;;;;;5044884;28;1693;-71
2023/10/26 01:29:19;;;;;;;;;;;20.00;69.50;;;;;;5043527;28;1296;-71
2023/10/26 01:31:45;;;;;;;;;;;20.00;69.50;;;;;;5037943;28;1387;-69
2023/10/26 01:34:10;;;;;;;;;;;20.00;69.50;;;;;;5042659;28;1384;-71
2023/10/26 01:36:36;;;;;;;;;;;20.00;69.50;;;;;;5026789;28;1383;-71
2023/10/26 01:39:01;;;;;;;;;;;20.00;69.60;;;;;;5041496;28;1890;-70
2023/10/26 01:41:30;;;;;;;;;;;20.00;69.50;;;;;;5043832;28;1531;-71
2023/10/26 01:43:55;;;;;;;;;;;20.00;69.60;;;;;;5040518;28;1537;-71
2023/10/26 01:46:21;;;;;;;;;;;20.00;69.50;;;;;;5042656;28;1412;-70
2023/10/26 01:48:46;;;;;;;;;;;20.00;69.60;;;;;;5043936;28;1389;-71
2023/10/26 01:51:12;;;;;;;;;;;20.00;69.60;;;;;;5042633;28;1396;-71
2023/10/26 01:53:37;;;;;;;;;;;20.00;69.60;;;;;;5041383;28;1446;-71
2023/10/26 01:56:03;;;;;;;;;;;20.00;69.60;;;;;;5039387;28;1530;-71
2023/10/26 01:58:28;;;;;;;;;;;20.00;69.60;;;;;;5024665;28;1985;-70
2023/10/26 02:00:54;;;;;;;;;;;20.00;70.30;;;;;;5042091;28;1336;-71
2023/10/26 02:03:19;;;;;;;;;;;19.90;69.60;;;;;;5042123;28;1491;-71
2023/10/26 02:05:45;;;;;;;;;;;19.90;69.60;;;;;;5038411;28;1440;-71
2023/10/26 02:08:10;;;;;;;;;;;20.00;69.60;;;;;;5038352;28;1221;-70
2023/10/26 02:10:36;;;;;;;;;;;20.00;69.70;;;;;;5042017;28;1339;-71
2023/10/26 02:13:02;;;;;;;;;;;19.90;69.60;;;;;;5042413;28;1464;-71
2023/10/26 02:15:28;;;;;;;;;;;19.90;70.30;;;;;;5042177;28;1448;-71
2023/10/26 02:17:53;;;;;;;;;;;19.90;69.60;;;;;;5038411;28;1890;-71
2023/10/26 02:20:19;;;;;;;;;;;19.90;69.60;;;;;;5039229;28;1323;-71
2023/10/26 02:22:44;;;;;;;;;;;19.90;69.60;;;;;;5039519;28;1495;-69
2023/10/26 02:25:10;;;;;;;;;;;19.90;69.70;;;;;;5041770;28;1205;-69
2023/10/26 02:27:35;;;;;;;;;;;19.90;69.90;;;;;;5038761;28;1421;-69
2023/10/26 02:30:01;;;;;;;;;;;19.90;69.60;;;;;;5042387;28;1742;-72
2023/10/26 02:32:26;;;;;;;;;;;19.90;69.60;;;;;;5039611;28;1329;-73
2023/10/26 02:34:52;;;;;;;;;;;19.90;69.70;;;;;;5039713;28;1018;-73
2023/10/26 02:37:18;;;;;;;;;;;19.90;69.70;;;;;;5054839;23;3816;-71
2023/10/26 02:39:43;;;;;;;;;;;19.90;69.70;;;;;;5063118;28;1914;-72
2023/10/26 02:42:09;;;;;;;;;;;19.90;69.70;;;;;;5070544;28;902;-71
2023/10/26 02:44:35;;;;;;;;;;;19.90;69.70;;;;;;5068127;28;1422;-73
2023/10/26 02:47:00;;;;;;;;;;;19.90;69.70;;;;;;5056330;28;1397;-71
2023/10/26 02:49:25;;;;;;;;;;;19.90;69.70;;;;;;5050609;28;1172;-71
2023/10/26 02:51:51;;;;;;;;;;;19.90;69.70;;;;;;5052736;28;1195;-71
2023/10/26 02:54:16;;;;;;;;;;;19.90;69.80;;;;;;5052500;28;1540;-69
2023/10/26 02:56:42;;;;;;;;;;;19.90;69.70;;;;;;5053611;28;1418;-70
2023/10/26 02:59:07;;;;;;;;;;;19.90;69.80;;;;;;5051280;28;1903;-69
2023/10/26 03:01:33;;;;;;;;;;;19.90;69.70;;;;;;5049752;28;1256;-70
2023/10/26 03:04:00;;;;;;;;;;;19.90;69.70;;;;;;5048842;28;1335;-69
2023/10/26 03:06:25;;;;;;;;;;;19.90;69.70;;;;;;5049350;28;1545;-70
2023/10/26 03:08:51;;;;;;;;;;;19.90;69.80;;;;;;5052484;28;1250;-69
2023/10/26 03:11:16;;;;;;;;;;;19.90;69.80;;;;;;5049569;28;1355;-69
2023/10/26 03:13:42;;;;;;;;;;;19.90;69.80;;;;;;5050334;28;1513;-71
2023/10/26 03:16:07;;;;;;;;;;;19.90;69.80;;;;;;5049124;28;1613;-69
2023/10/26 03:18:33;;;;;;;;;;;19.90;69.80;;;;;;5050765;28;1914;-69
2023/10/26 03:20:58;;;;;;;;;;;19.90;69.80;;;;;;5051208;28;1487;-69
2023/10/26 03:23:24;;;;;;;;;;;19.90;69.80;;;;;;5049021;28;1120;-69
2023/10/26 03:25:49;;;;;;;;;;;19.90;69.90;;;;;;5050301;28;1302;-69
2023/10/26 03:28:15;;;;;;;;;;;19.90;69.80;;;;;;5050282;28;1282;-69
2023/10/26 03:30:40;;;;;;;;;;;19.90;69.90;;;;;;5047787;28;1449;-69
2023/10/26 03:33:05;;;;;;;;;;;19.90;69.80;;;;;;5050252;28;1459;-69
2023/10/26 03:35:35;;;;;;;;;;;19.90;69.90;;;;;;5049838;28;1293;-69
2023/10/26 03:38:01;;;;;;;;;;;19.90;69.90;;;;;;5049778;28;1977;-69
2023/10/26 03:40:27;;;;;;;;;;;19.90;69.90;;;;;;5051300;28;1445;-69
2023/10/26 03:42:52;;;;;;;;;;;19.90;69.90;;;;;;5049869;28;1434;-69
2023/10/26 03:45:18;;;;;;;;;;;19.90;69.90;;;;;;5048966;28;1530;-70
2023/10/26 03:47:43;;;;;;;;;;;19.90;69.90;;;;;;5050644;28;1244;-69
2023/10/26 03:50:08;;;;;;;;;;;19.90;69.90;;;;;;5049402;28;1227;-69
2023/10/26 03:52:34;;;;;;;;;;;19.90;69.90;;;;;;5048225;28;1062;-70
2023/10/26 03:55:00;;;;;;;;;;;19.90;69.90;;;;;;5056762;28;1252;-69
2023/10/26 03:57:25;;;;;;;;;;;19.90;69.90;;;;;;5049802;28;1387;-71
2023/10/26 03:59:51;;;;;;;;;;;19.90;69.90;;;;;;5049215;28;1965;-71
2023/10/26 04:02:16;;;;;;;;;;;19.90;69.90;;;;;;5049540;28;1479;-71
2023/10/26 04:04:42;;;;;;;;;;;19.90;69.90;;;;;;5050066;28;1320;-71
2023/10/26 04:07:08;;;;;;;;;;;19.90;70.00;;;;;;5049460;28;1315;-71
2023/10/26 04:09:33;;;;;;;;;;;19.80;69.90;;;;;;5048209;28;1329;-71
2023/10/26 04:11:58;;;;;;;;;;;19.90;70.00;;;;;;5047718;28;1463;-71
2023/10/26 04:14:24;;;;;;;;;;;19.90;69.90;;;;;;5048073;28;1362;-71
2023/10/26 04:16:50;;;;;;;;;;;19.90;69.80;;;;;;5048651;28;1395;-70
2023/10/26 04:19:15;;;;;;;;;;;19.90;69.80;;;;;;5049643;28;1957;-71
2023/10/26 04:21:41;;;;;;;;;;;19.90;69.70;;;;;;5048912;28;1167;-71
2023/10/26 04:24:06;;;;;;;;;;;19.90;69.60;;;;;;5048437;28;1706;-71
2023/10/26 04:26:35;;;;;;;;;;;20.00;69.60;;;;;;5051018;28;1374;-71
2023/10/26 04:29:00;;;;;;;;;;;20.00;69.60;;;;;;5050210;28;1368;-70
2023/10/26 04:31:26;;;;;;;;;;;20.00;69.40;;;;;;5051399;28;1616;-69
2023/10/26 04:33:51;;;;;;;;;;;20.00;69.40;;;;;;5051465;28;1143;-70
2023/10/26 04:36:18;;;;;;;;;;;20.00;69.20;;;;;;5046695;28;1256;-70
2023/10/26 04:38:43;;;;;;;;;;;20.00;69.20;;;;;;5049640;28;1941;-70
2023/10/26 04:41:09;;;;;;;;;;;20.10;69.10;;;;;;5049741;28;1519;-70
2023/10/26 04:43:34;;;;;;;;;;;20.10;69.10;;;;;;5050471;28;1255;-70
2023/10/26 04:46:00;;;;;;;;;;;20.10;69.00;;;;;;5052053;28;1467;-71
2023/10/26 04:48:26;;;;;;;;;;;20.10;68.90;;;;;;5053081;28;1459;-70
2023/10/26 04:50:52;;;;;;;;;;;20.10;68.80;;;;;;5051509;28;1493;-70
2023/10/26 04:53:17;;;;;;;;;;;20.10;68.80;;;;;;5054474;28;1323;-69
2023/10/26 04:55:43;;;;;;;;;;;20.20;68.80;;;;;;5052792;28;1381;-68
2023/10/26 04:58:09;;;;;;;;;;;20.20;68.80;;;;;;5051972;28;1915;-68
2023/10/26 05:00:34;;;;;;;;;;;20.20;68.80;;;;;;5052620;28;1461;-69
2023/10/26 05:02:59;;;;;;;;;;;20.20;68.70;;;;;;5053861;28;1349;-69
2023/10/26 05:05:25;;;;;;;;;;;20.20;68.70;;;;;;5053716;28;1581;-70
2023/10/26 05:07:50;;;;;;;;;;;20.20;68.70;;;;;;5053644;28;1465;-68
2023/10/26 05:10:16;;;;;;;;;;;20.20;68.60;;;;;;5053850;28;1420;-68
2023/10/26 05:12:41;;;;;;;;;;;20.20;68.50;;;;;;5052000;28;1411;-69
2023/10/26 05:15:08;;;;;;;;;;;20.20;68.50;;;;;;5053167;28;1213;-68
2023/10/26 05:17:35;;;;;;;;;;;20.20;68.50;;;;;;5051419;28;1295;-70
2023/10/26 05:20:01;;;;;;;;;;;20.20;68.50;;;;;;5052125;28;1922;-70
2023/10/26 05:22:26;;;;;;;;;;;20.30;68.50;;;;;;5055367;28;1151;-70
2023/10/26 05:24:52;;;;;;;;;;;20.30;68.50;;;;;;5051723;28;1367;-70
2023/10/26 05:27:18;;;;;;;;;;;20.30;68.40;;;;;;5051871;28;1393;-70
2023/10/26 05:29:44;;;;;;;;;;;20.30;68.40;;;;;;5051939;28;1438;-70
2023/10/26 05:32:09;;;;;;;;;;;20.30;68.40;;;;;;5052400;28;1624;-70
2023/10/26 05:34:35;;;;;;;;;;;20.30;68.40;;;;;;5052317;28;1248;-70
2023/10/26 05:37:00;;;;;;;;;;;20.30;68.40;;;;;;5051094;28;2359;-70
2023/10/26 05:39:25;;;;;;;;;;;20.30;68.30;;;;;;5052482;28;1957;-70
2023/10/26 05:41:52;;;;;;;;;;;20.30;68.30;;;;;;5051554;28;1500;-70
2023/10/26 05:44:18;;;;;;;;;;;20.30;68.30;;;;;;5051527;28;1427;-70
2023/10/26 05:46:43;;;;;;;;;;;20.30;68.30;;;;;;5052091;28;1438;-72
2023/10/26 05:49:09;;;;;;;;;;;20.30;68.30;;;;;;5054455;28;1709;-68
2023/10/26 05:51:37;;;;;;;;;;;20.30;69.10;;;;;;5053972;28;1578;-69
2023/10/26 05:54:02;;;;;;;;;;;20.30;68.20;;;;;;5050967;28;1333;-69
2023/10/26 05:56:28;;;;;;;;;;;20.30;68.30;;;;;;5051380;28;1808;-68
2023/10/26 05:58:53;;;;;;;;;;;20.30;68.20;;;;;;5051065;28;1906;-71
2023/10/26 06:01:19;;;;;;;;;;;20.30;68.20;;;;;;5051933;28;1468;-71
2023/10/26 06:03:44;;;;;;;;;;;20.30;68.20;;;;;;5052213;28;1109;-69
2023/10/26 06:06:10;;;;;;;;;;;20.30;68.20;;;;;;5050485;28;2048;-70
2023/10/26 06:08:36;;;;;;;;;;;20.30;68.20;;;;;;5033431;28;1476;-69
2023/10/26 06:11:01;;;;;;;;;;;20.30;68.20;;;;;;5051927;28;1416;-70
2023/10/26 06:13:27;;;;;;;;;;;20.30;68.20;;;;;;5051971;28;1213;-69
2023/10/26 06:15:52;;;;;;;;;;;20.30;68.20;;;;;;5050489;28;1350;-69
2023/10/26 06:18:18;;;;;;;;;;;20.30;68.20;;;;;;5065529;28;1906;-68
2023/10/26 06:20:43;;;;;;;;;;;20.40;68.50;;;;;;5049764;28;1297;-69
2023/10/26 06:23:11;;;;;;;;;;;20.40;68.40;;;;;;5049508;28;1505;-69
2023/10/26 06:25:36;;;;;;;;;;;20.40;68.40;;;;;;5049666;28;1248;-69
2023/10/26 06:28:03;;;;;;;;;;;20.40;68.30;;;;;;5049520;28;1387;-69
2023/10/26 06:30:28;;;;;;;;;;;20.50;68.10;;;;;;5050551;28;925;-70
2023/10/26 06:32:54;;;;;;;;;;;20.60;68.00;;;;;;5049658;28;1919;-72
2023/10/26 06:35:19;;;;;;;;;;;20.60;67.80;;;;;;5038231;28;1943;-72
2023/10/26 06:37:45;;;;;;;;;;;20.70;67.70;;;;;;5048812;28;1374;-70
2023/10/26 06:40:10;;;;;;;;;;;20.80;67.50;;;;;;5049833;28;1995;-68
2023/10/26 06:42:36;;;;;;;;;;;20.90;67.30;;;;;;5052105;28;922;-68
2023/10/26 06:45:02;;;;;;;;;;;21.00;67.10;;;;;;5049765;28;1315;-68
2023/10/26 06:47:28;;;;;;;;;;;21.00;66.90;;;;;;5050651;28;1359;-72
2023/10/26 06:49:54;;;;;;;;;;;21.10;66.70;;;;;;5051128;28;1174;-67
2023/10/26 06:52:19;;;;;;;;;;;21.10;66.50;;;;;;5050609;28;1606;-67
2023/10/26 06:54:48;;;;;;;;;;;21.20;66.30;;;;;;5050661;28;1540;-71
2023/10/26 06:57:14;;;;;;;;;;;21.20;66.20;;;;;;5050561;28;1455;-70
2023/10/26 06:59:41;;;;;;;;;;;21.30;66.10;;;;;;5046544;22;1979;-70
2023/10/26 07:02:07;;;;;;;;;;;21.30;65.90;;;;;;5025421;28;1522;-70
2023/10/26 07:04:32;;;;;;;;;;;21.30;65.80;;;;;;5017358;28;1528;-70
2023/10/26 07:06:57;;;;;;;;;;;21.30;65.70;;;;;;5025895;28;1317;-70
2023/10/26 07:09:23;;;;;;;;;;;21.40;65.70;;;;;;5025751;28;1415;-70
2023/10/26 07:11:49;;;;;;;;;;;21.40;65.60;;;;;;5007065;28;1447;-70
2023/10/26 07:14:14;;;;;;;;;;;21.40;65.60;;;;;;5029364;28;1244;-70
2023/10/26 07:16:40;;;;;;;;;;;21.40;65.50;;;;;;5025271;28;1581;-70
2023/10/26 07:19:05;;;;;;;;;;;21.40;65.50;;;;;;5025007;28;1974;-70
2023/10/26 07:21:33;;;;;;;;;;;21.40;65.40;;;;;;5025809;28;1428;-70
2023/10/26 07:23:59;;;;;;;;;;;21.40;65.40;;;;;;5004034;28;1066;-73
2023/10/26 07:26:24;;;;;;;;;;;21.40;65.40;;;;;;5025891;28;1472;-73
2023/10/26 07:28:50;;;;;;;;;;;21.40;65.40;;;;;;5027236;28;1511;-73
2023/10/26 07:31:19;;;;;;;;;;;21.40;65.40;;;;;;5026902;28;1444;-72
2023/10/26 07:33:45;;;;;;;;;;;21.40;65.40;;;;;;5007065;28;1242;-73
2023/10/26 07:36:11;;;;;;;;;;;21.40;65.40;;;;;;5024057;28;1324;-74
2023/10/26 07:38:36;;;;;;;;;;;21.40;65.30;;;;;;4991768;28;2228;-74
2023/10/26 07:41:03;;;;;;;;;;;21.40;65.40;;;;;;5025489;28;1629;-73
2023/10/26 07:43:29;;;;;;;;;;;21.40;65.40;;;;;;5028582;28;1432;-74
2023/10/26 07:45:55;;;;;;;;;;;21.40;65.70;;;;;;5026339;28;1439;-72
2023/10/26 07:48:20;;;;;;;;;;;21.40;65.50;;;;;;5027098;28;1544;-73
2023/10/26 07:50:46;;;;;;;;;;;21.40;65.50;;;;;;5026799;28;1775;-73
2023/10/26 07:53:11;;;;;;;;;;;21.40;65.50;;;;;;5025749;28;1610;-73
2023/10/26 07:55:37;;;;;;;;;;;21.40;65.50;;;;;;5027680;28;1424;-72
2023/10/26 07:58:03;;;;;;;;;;;21.30;65.50;;;;;;5026504;28;1985;-72
2023/10/26 08:00:28;;;;;;;;;;;21.30;65.50;;;;;;5009252;28;1501;-72
2023/10/26 08:02:54;;;;;;;;;;;21.30;65.60;;;;;;5027169;28;1005;-73
2023/10/26 08:05:19;;;;;;;;;;;21.30;65.70;;;;;;5028034;28;1362;-72
2023/10/26 08:07:47;;;;;;;;;;;21.30;65.70;;;;;;5007927;28;901;-72
2023/10/26 08:10:12;;;;;;;;;;;21.30;65.80;;;;;;5009599;28;1742;-73
2023/10/26 08:12:38;;;;;;;;;;;21.30;65.90;;;;;;5027546;28;1172;-72
2023/10/26 08:15:04;;;;;;;;;;;21.30;65.90;;;;;;4988960;28;1425;-71
2023/10/26 08:17:36;;;;;;;;;;;21.30;66.00;;;;;;5004376;28;1568;-73
2023/10/26 08:20:04;;;;;;;;;;;21.20;66.00;;;;;;5010779;28;1906;-73
2023/10/26 08:22:29;;;;;;;;;;;21.20;66.10;;;;;;5008179;28;1472;-72
2023/10/26 08:24:55;;;;;;;;;;;21.20;66.20;;;;;;5005602;28;1492;-72
2023/10/26 08:27:24;;;;;;;;;;;21.20;66.20;;;;;;5030918;28;1476;-71
2023/10/26 08:29:50;;;;;;;;;;;21.20;66.20;;;;;;5008001;28;1397;-72
2023/10/26 08:32:15;;;;;;;;;;;21.10;66.20;;;;;;5010758;28;1268;-72
2023/10/26 08:34:41;;;;;;;;;;;21.10;66.30;;;;;;5029613;28;1028;-72
2023/10/26 08:37:06;;;;;;;;;;;21.20;66.40;;;;;;5027845;28;1410;-72
2023/10/26 08:39:32;;;;;;;;;;;21.10;66.40;;;;;;5011699;28;1955;-70
2023/10/26 08:42:01;;;;;;;;;;;21.10;66.50;;;;;;5030238;28;1336;-72
2023/10/26 08:44:27;;;;;;;;;;;21.10;66.50;;;;;;5006281;28;1398;-72
2023/10/26 08:46:53;;;;;;;;;;;21.10;66.60;;;;;;5028861;28;1468;-70
2023/10/26 08:49:19;;;;;;;;;;;21.10;66.60;;;;;;5010767;28;1321;-71
2023/10/26 08:51:44;;;;;;;;;;;21.10;66.70;;;;;;5007990;28;1447;-71
2023/10/26 08:54:10;;;;;;;;;;;21.10;66.60;;;;;;5030824;28;1575;-71
2023/10/26 08:56:35;;;;;;;;;;;21.10;66.70;;;;;;5005290;28;1302;-71
2023/10/26 08:59:03;;;;;;;;;;;21.10;66.70;;;;;;5028639;28;1977;-72
2023/10/26 09:01:28;;;;;;;;;;;21.10;66.70;;;;;;5029141;28;1456;-73
2023/10/26 09:03:54;;;;;;;;;;;21.10;66.70;;;;;;5025048;28;1635;-73
2023/10/26 09:06:19;;;;;;;;;;;21.10;66.70;;;;;;5027003;28;1369;-73
2023/10/26 09:08:58;;;;;;;;;;;21.10;66.70;;;;;;5028114;28;1323;-72
2023/10/26 09:11:25;;;;;;;;;;;21.10;66.60;;;;;;5009956;28;931;-74
2023/10/26 09:13:52;;;;;;;;;;;21.10;66.60;;;;;;5029186;28;1157;-72
2023/10/26 09:16:18;;;;;;;;;;;21.10;66.60;;;;;;5013495;28;947;-72
2023/10/26 09:18:52;;;;;;;;;;;21.10;66.50;;;;;;5031397;28;1934;-74
2023/10/26 09:21:18;;;;;;;;;;;21.20;66.50;;;;;;5009918;28;1257;-74
2023/10/26 09:23:45;;;;;;;;;;;21.20;66.40;;;;;;5027492;28;1871;-74
2023/10/26 09:26:10;;;;;;;;;;;21.20;66.20;;;;;;5026715;28;1411;-74
2023/10/26 09:29:06;;;;;;;;;;;21.30;67.50;;;;;;5006678;28;2186;-75
2023/10/26 09:31:31;;;;;;;;;;;21.30;68.20;;;;;;4994409;28;1484;-75
2023/10/26 09:34:04;;;;;;;;;;;21.30;68.80;;;;;;5029931;28;1391;-76
2023/10/26 09:36:30;;;;;;;;;;;21.40;69.10;;;;;;5008066;28;1917;-74
2023/10/26 09:38:56;;;;;;;;;;;21.40;68.50;;;;;;5026923;28;1972;-74
2023/10/26 09:41:21;;;;;;;;;;;21.40;67.90;;;;;;5011129;28;2176;-74
2023/10/26 09:43:47;;;;;;;;;;;21.50;68.10;;;;;;5027880;28;2147;-73
2023/10/26 09:46:13;;;;;;;;;;;21.50;67.60;;;;;;5009090;28;1809;-74
2023/10/26 09:48:40;;;;;;;;;;;21.50;67.40;;;;;;5029285;28;1316;-74
2023/10/26 09:51:06;;;;;;;;;;;21.50;67.10;;;;;;5029449;28;1464;-74
2023/10/26 09:53:32;;;;;;;;;;;21.50;67.00;;;;;;5008616;28;1902;-74
2023/10/26 09:55:58;;;;;;;;;;;21.50;66.90;;;;;;4991872;28;1446;-74
2023/10/26 09:58:24;;;;;;;;;;;21.50;66.80;;;;;;5011089;28;1992;-74
2023/10/26 10:00:49;;;;;;;;;;;21.50;66.70;;;;;;5007437;28;1944;-73
2023/10/26 10:03:15;;;;;;;;;;;21.50;66.70;;;;;;5027611;28;2149;-73
2023/10/26 10:05:41;;;;;;;;;;;21.50;66.60;;;;;;5026162;28;1861;-73
2023/10/26 10:08:07;;;;;;;;;;;21.50;66.60;;;;;;5024053;28;1924;-73
2023/10/26 10:10:33;;;;;;;;;;;21.50;66.50;;;;;;5004862;28;2092;-73
2023/10/26 10:12:58;;;;;;;;;;;21.50;66.50;;;;;;5026803;28;1923;-73
2023/10/26 10:15:34;;;;;;;;;;;21.50;66.50;;;;;;5004628;28;1615;-73
2023/10/26 10:18:00;;;;;;;;;;;21.50;66.50;;;;;;5005521;28;1910;-73
2023/10/26 10:20:26;;;;;;;;;;;21.50;66.50;;;;;;5029139;28;1753;-73
2023/10/26 10:22:58;;;;;;;;;;;21.50;66.40;;;;;;5022934;28;1856;-72
2023/10/26 10:25:43;;;;;;;;;;;21.50;66.40;;;;;;5010606;28;1306;-73
2023/10/26 10:28:09;;;;;;;;;;;21.50;66.50;;;;;;5025441;28;1259;-71
2023/10/26 10:30:46;;;;;;;;;;;21.50;66.40;;;;;;5011226;28;1340;-72
2023/10/26 10:33:12;;;;;;;;;;;21.50;66.40;;;;;;5002710;28;1457;-72
2023/10/26 10:35:37;;;;;;;;;;;21.40;66.30;;;;;;5007245;28;2049;-72
2023/10/26 10:38:18;;;;;;;;;;;21.50;66.40;;;;;;5025862;28;2066;-72
2023/10/26 10:40:59;;;;;;;;;;;21.40;66.30;;;;;;5023624;28;1864;-72
2023/10/26 10:43:30;;;;;;;;;;;21.40;66.30;;;;;;5024552;28;1437;-72
2023/10/26 10:45:55;;;;;;;;;;;21.40;66.30;;;;;;5020573;28;1086;-75
2023/10/26 10:48:21;;;;;;;;;;;21.40;66.30;;;;;;5001765;28;1006;-71
2023/10/26 10:50:47;;;;;;;;;;;21.40;66.30;;;;;;5025079;28;1978;-72
2023/10/26 10:53:12;;;;;;;;;;;21.40;66.30;;;;;;5006532;28;1218;-71
2023/10/26 10:55:39;;;;;;;;;;;21.40;66.40;;;;;;5004593;28;1382;-73
2023/10/26 10:58:04;;;;;;;;;;;21.40;66.40;;;;;;4993477;28;1963;-71
2023/10/26 11:00:43;;;;;;;;;;;21.40;66.40;;;;;;5008183;28;1375;-73
2023/10/26 11:03:08;;;;;;;;;;;21.40;66.40;;;;;;5007663;28;1229;-71
2023/10/26 11:05:40;;;;;;;;;;;21.40;66.50;;;;;;5025887;28;1254;-72
2023/10/26 11:08:06;;;;;;;;;;;21.40;66.50;;;;;;5003285;28;1146;-70
2023/10/26 11:10:32;;;;;;;;;;;21.30;66.50;;;;;;4999270;28;1579;-70
2023/10/26 11:12:57;;;;;;;;;;;21.40;66.50;;;;;;5027198;28;1489;-71
2023/10/26 11:15:35;;;;;;;;;;;21.40;66.50;;;;;;5026149;28;1030;-73
2023/10/26 11:18:01;;;;;;;;;;;21.40;66.50;;;;;;5007438;28;1883;-71
2023/10/26 11:20:34;;;;;;;;;;;21.30;66.40;;;;;;5006207;28;1814;-71
2023/10/26 11:23:00;;;;;;;;;;;21.40;66.50;;;;;;5024844;28;1533;-71
2023/10/26 11:25:26;;;;;;;;;;;21.40;66.40;;;;;;4994256;28;1442;-71
2023/10/26 11:27:51;;;;;;;;;;;21.40;66.40;;;;;;5005356;28;1428;-74
2023/10/26 11:30:16;;;;;;;;;;;21.40;66.30;;;;;;5007394;28;1647;-73
2023/10/26 11:32:42;;;;;;;;;;;21.40;66.30;;;;;;5027352;28;1267;-70
2023/10/26 11:35:08;;;;;;;;;;;21.40;66.20;;;;;;5009867;28;1483;-71
2023/10/26 11:37:35;;;;;;;;;;;21.50;66.20;;;;;;5008880;28;1307;-72
2023/10/26 11:40:01;;;;;;;;;;;21.50;66.10;;;;;;5007521;28;1914;-72
2023/10/26 11:42:45;;;;;;;;;;;21.50;66.00;;;;;;5005199;28;973;-72
2023/10/26 11:45:15;;;;;;;;;;;21.50;65.90;;;;;;5027290;28;1430;-72
2023/10/26 11:47:44;;;;;;;;;;;21.60;65.90;;;;;;5027782;28;1025;-71
2023/10/26 11:50:23;;;;;;;;;;;21.60;65.80;;;;;;5002054;28;1277;-73
2023/10/26 11:52:49;;;;;;;;;;;21.60;65.80;;;;;;5011476;28;784;-71
2023/10/26 11:55:14;;;;;;;;;;;21.60;65.80;;;;;;5028537;28;1780;-73
2023/10/26 11:57:40;;;;;;;;;;;21.60;65.80;;;;;;5002165;28;1315;-71
2023/10/26 12:00:06;;;;;;;;;;;21.60;65.70;;;;;;5009755;28;1960;-72
2023/10/26 12:02:32;;;;;;;;;;;21.60;65.70;;;;;;5028109;28;1206;-71
2023/10/26 12:04:59;;;;;;;;;;;21.60;65.70;;;;;;5002870;28;1169;-71
2023/10/26 12:07:25;;;;;;;;;;;21.60;65.70;;;;;;5031316;28;872;-70
2023/10/26 12:09:50;;;;;;;;;;;21.60;65.80;;;;;;5013513;28;1352;-72
2023/10/26 12:12:15;;;;;;;;;;;21.60;65.80;;;;;;5027640;28;896;-74
2023/10/26 12:14:43;;;;;;;;;;;21.60;66.60;;;;;;5019846;28;2257;-73
2023/10/26 12:17:08;;;;;;;;;;;21.60;65.80;;;;;;5013023;28;1354;-70
2023/10/26 12:19:34;;;;;;;;;;;21.60;65.80;;;;;;5015662;28;1910;-71
2023/10/26 12:21:59;;;;;;;;;;;21.60;65.80;;;;;;5030690;28;1511;-72
2023/10/26 12:24:25;;;;;;;;;;;21.50;65.80;;;;;;5011130;28;1239;-70
2023/10/26 12:26:57;;;;;;;;;;;21.50;65.80;;;;;;5015719;28;1300;-71
2023/10/26 12:29:22;;;;;;;;;;;21.50;65.80;;;;;;5028347;28;1280;-72
2023/10/26 12:31:48;;;;;;;;;;;21.50;66.30;;;;;;5033261;28;1169;-70
2023/10/26 12:34:13;;;;;;;;;;;21.50;66.20;;;;;;5009056;28;1330;-70
2023/10/26 12:36:38;;;;;;;;;;;21.50;66.10;;;;;;5036232;28;1097;-71
2023/10/26 12:39:04;;;;;;;;;;;21.50;66.40;;;;;;5033407;28;1972;-70
2023/10/26 12:41:29;;;;;;;;;;;21.50;66.70;;;;;;5029496;28;1137;-70
2023/10/26 12:43:55;;;;;;;;;;;21.50;66.90;;;;;;5028035;28;943;-70
2023/10/26 12:46:23;;;;;;;;;;;21.50;67.40;;;;;;5027015;28;947;-72
2023/10/26 12:48:49;;;;;;;;;;;21.50;67.70;;;;;;5029441;28;1306;-71
2023/10/26 12:51:14;;;;;;;;;;;21.50;67.40;;;;;;5030141;28;1400;-72
2023/10/26 12:53:40;;;;;;;;;;;21.50;67.60;;;;;;5007031;28;1352;-70
2023/10/26 12:56:08;;;;;;;;;;;21.50;67.50;;;;;;5027074;28;1151;-72
2023/10/26 12:58:34;;;;;;;;;;;21.50;67.90;;;;;;5029704;28;1910;-71
2023/10/26 13:00:59;;;;;;;;;;;21.50;67.80;;;;;;5028217;28;1207;-70
2023/10/26 13:03:25;;;;;;;;;;;21.50;68.20;;;;;;5022445;28;1002;-70
2023/10/26 13:05:50;;;;;;;;;;;21.50;68.40;;;;;;5022219;28;1329;-70
2023/10/26 13:08:16;;;;;;;;;;;21.50;68.50;;;;;;5027522;28;1205;-73
2023/10/26 13:10:43;;;;;;;;;;;21.50;68.70;;;;;;5010632;28;1869;-74
2023/10/26 13:13:09;;;;;;;;;;;21.50;68.80;;;;;;5008696;28;1561;-71
2023/10/26 13:15:34;;;;;;;;;;;21.50;68.50;;;;;;5030705;28;922;-72
2023/10/26 13:17:59;;;;;;;;;;;21.50;68.40;;;;;;5028653;28;1280;-73
2023/10/26 13:20:25;;;;;;;;;;;21.50;68.60;;;;;;5030205;28;1967;-70
2023/10/26 13:22:51;;;;;;;;;;;21.50;68.50;;;;;;5009835;28;1758;-71
2023/10/26 13:25:17;;;;;;;;;;;21.50;68.60;;;;;;5008143;28;1237;-71
2023/10/26 13:27:42;;;;;;;;;;;21.50;68.80;;;;;;5028295;28;861;-71
2023/10/26 13:30:09;;;;;;;;;;;21.50;69.10;;;;;;5025032;28;1292;-71
2023/10/26 13:32:35;;;;;;;;;;;21.50;69.50;;;;;;5030499;28;1357;-73
2023/10/26 13:35:00;;;;;;;;;;;21.60;70.40;;;;;;5009662;28;1295;-71
2023/10/26 13:37:26;;;;;;;;;;;21.60;69.90;;;;;;5029567;28;1342;-72
2023/10/26 13:39:51;;;;;;;;;;;21.60;69.80;;;;;;5029565;28;1910;-73
2023/10/26 13:42:17;;;;;;;;;;;21.60;70.20;;;;;;5028601;28;1278;-71
2023/10/26 13:44:43;;;;;;;;;;;21.60;70.10;;;;;;5028848;28;1402;-72
2023/10/26 13:47:09;;;;;;;;;;;21.70;70.10;;;;;;5029734;28;1280;-71
2023/10/26 13:49:34;;;;;;;;;;;21.70;70.70;;;;;;5013444;28;1304;-73
2023/10/26 13:52:00;;;;;;;;;;;21.70;70.80;;;;;;5030554;28;1207;-72
2023/10/26 13:54:25;;;;;;;;;;;21.70;70.10;;;;;;5027137;28;1510;-70
2023/10/26 13:56:51;;;;;;;;;;;21.70;69.70;;;;;;5028821;28;1009;-71
2023/10/26 13:59:16;;;;;;;;;;;21.70;69.90;;;;;;5030937;28;1950;-72
2023/10/26 14:01:42;;;;;;;;;;;21.80;70.30;;;;;;5026692;28;1124;-73
2023/10/26 14:04:07;;;;;;;;;;;21.70;70.30;;;;;;5025314;28;998;-71
2023/10/26 14:06:33;;;;;;;;;;;21.70;69.20;;;;;;5022909;28;1433;-71
2023/10/26 14:08:58;;;;;;;;;;;21.70;69.00;;;;;;5031466;28;1300;-71
2023/10/26 14:11:28;;;;;;;;;;;21.70;69.10;;;;;;5029571;28;1021;-73
2023/10/26 14:13:53;;;;;;;;;;;21.70;68.80;;;;;;5006968;28;992;-74
2023/10/26 14:16:22;;;;;;;;;;;21.70;68.50;;;;;;5028947;28;1447;-73
2023/10/26 14:18:48;;;;;;;;;;;21.70;68.50;;;;;;5007288;28;1906;-72
2023/10/26 14:21:14;;;;;;;;;;;21.70;68.60;;;;;;5031797;28;1267;-73
2023/10/26 14:23:42;;;;;;;;;;;21.70;69.30;;;;;;5016438;28;1463;-72
2023/10/26 14:26:08;;;;;;;;;;;21.70;69.90;;;;;;5026639;28;1196;-72